Time;durP1;ratioP1;P1;durP2;ratioP2;P2;SDS_P1;SDS_P2;PMS_P1;PMS_P2;Temp;Humidity;BMP_temperature;BMP_pressure;BME280_temperature;BME280_humidity;BME280_pressure;Samples;Min_cycle;Max_cycle;Signal;HPM_P1;HPM_P2
2022/08/08 00:00:46;;;;;;;3.30;3.00;;;;;;;16.75;88.26;95067.22;1646683;84;21501;-54
2022/08/08 00:03:36;;;;;;;5.33;3.10;;;;;;;16.70;88.34;95068.53;1663192;84;20975;-54
2022/08/08 00:06:28;;;;;;;3.92;3.50;;;;;;;16.64;88.43;95071.81;1663105;84;22170;-54
2022/08/08 00:09:04;;;;;;;4.70;3.42;;;;;;;16.62;88.71;95068.75;1666683;84;21082;-53
2022/08/08 00:11:47;;;;;;;5.90;3.27;;;;;;;16.60;88.92;95064.30;1670944;85;21054;-54
2022/08/08 00:14:52;;;;;;;4.85;3.45;;;;;;;16.60;89.14;95069.85;1666120;85;21028;-53
2022/08/08 00:17:43;;;;;;;4.70;3.12;;;;;;;16.58;89.28;95064.77;1657405;84;21057;-53
2022/08/08 00:20:12;;;;;;;6.50;3.10;;;;;;;16.61;89.42;95054.11;1661626;84;21870;-53
2022/08/08 00:22:49;;;;;;;5.25;3.27;;;;;;;16.63;89.48;95046.66;1672634;85;21544;-53
2022/08/08 00:25:48;;;;;;;5.55;3.40;;;;;;;16.64;89.60;95045.42;1664809;85;21007;-53
2022/08/08 00:28:18;;;;;;;5.30;3.37;;;;;;;16.64;89.66;95042.64;1661519;85;21036;-53
2022/08/08 00:30:50;;;;;;;6.75;3.62;;;;;;;16.64;89.75;95042.03;1648818;85;21538;-53
2022/08/08 00:33:21;;;;;;;5.83;3.10;;;;;;;16.68;89.56;95037.66;1658542;84;21059;-53
2022/08/08 00:36:21;;;;;;;4.67;3.22;;;;;;;16.69;89.37;95037.83;1664355;85;21008;-53
2022/08/08 00:39:10;;;;;;;5.47;3.42;;;;;;;16.68;89.31;95036.27;1629709;85;20987;-53
2022/08/08 00:41:55;;;;;;;3.50;3.17;;;;;;;16.68;89.36;95036.27;1648470;86;21075;-54
2022/08/08 00:45:00;;;;;;;4.70;3.45;;;;;;;16.65;89.54;95033.06;1657841;85;21026;-52
2022/08/08 00:47:59;;;;;;;4.03;3.30;;;;;;;16.62;89.44;95036.19;1665505;84;21910;-53
2022/08/08 00:50:32;;;;;;;3.20;2.70;;;;;;;16.59;89.37;95028.04;1627848;84;21120;-52
2022/08/08 00:53:05;;;;;;;;;;;;;;;16.58;89.66;95032.06;1670417;84;21525;-52
2022/08/08 00:56:04;;;;;;;5.00;3.77;;;;;;;16.58;90.08;95025.88;1671111;84;20148;-53
2022/08/08 00:59:07;;;;;;;3.30;3.00;;;;;;;16.61;90.20;95031.10;1667337;85;21085;-52
2022/08/08 01:02:01;;;;;;;6.45;3.12;;;;;;;16.66;89.92;95031.81;1680090;84;21915;-53
2022/08/08 01:04:55;;;;;;;5.12;3.92;;;;;;;16.68;89.95;95027.93;1654082;86;21026;-53
2022/08/08 01:07:30;;;;;;;;;;;;;;;16.73;89.52;95025.89;1667985;84;20978;-54
2022/08/08 01:10:32;;;;;;;3.55;3.25;;;;;;;16.69;89.51;95023.94;1659528;85;20177;-53
2022/08/08 01:13:35;;;;;;;4.45;3.22;;;;;;;16.70;89.54;95028.23;1670345;85;21081;-52
2022/08/08 01:16:27;;;;;;;3.95;3.30;;;;;;;16.68;89.48;95026.54;1671862;85;21296;-52
2022/08/08 01:19:26;;;;;;;3.75;3.10;;;;;;;16.65;89.51;95027.50;1662714;84;20987;-54
2022/08/08 01:22:08;;;;;;;3.52;2.87;;;;;;;16.65;89.68;95017.78;1675962;84;20986;-53
2022/08/08 01:24:53;;;;;;;7.67;3.62;;;;;;;16.65;89.55;95017.78;1640093;85;21097;-53
2022/08/08 01:28:03;;;;;;;3.77;3.40;;;;;;;16.64;89.79;95013.47;1678399;84;21026;-54
2022/08/08 01:31:07;;;;;;;5.67;3.47;;;;;;;16.68;89.76;95012.03;1669719;84;21251;-54
2022/08/08 01:34:17;;;;;;;4.20;3.27;;;;;;;16.72;89.47;95016.02;1661345;85;21035;-53
2022/08/08 01:37:24;;;;;;;6.35;3.58;;;;;;;16.70;89.47;95013.71;1670634;84;21122;-53
2022/08/08 01:40:22;;;;;;;6.83;3.95;;;;;;;16.69;89.43;95008.02;1658366;85;21479;-53
2022/08/08 01:43:14;;;;;;;3.85;3.30;;;;;;;16.65;89.55;95009.45;1641514;87;21078;-53
2022/08/08 01:46:13;;;;;;;4.92;3.22;;;;;;;16.65;89.65;95012.22;1663510;84;21147;-53
2022/08/08 01:49:17;;;;;;;6.25;3.67;;;;;;;16.65;89.48;95008.05;1669227;85;20970;-54
2022/08/08 01:52:21;;;;;;;4.85;3.30;;;;;;;16.63;89.69;95010.55;1654153;85;21097;-53
2022/08/08 01:55:12;;;;;;;8.03;3.22;;;;;;;16.63;89.76;95002.22;1657936;85;21078;-53
2022/08/08 01:57:59;;;;;;;4.72;3.12;;;;;;;16.63;89.84;95007.16;1663778;85;21549;-53
2022/08/08 02:00:39;;;;;;;4.85;2.95;;;;;;;16.64;89.83;95006.52;1660357;84;21343;-53
2022/08/08 02:03:22;;;;;;;5.87;3.20;;;;;;;16.65;89.73;95005.28;1646724;85;20975;-53
2022/08/08 02:06:23;;;;;;;5.03;3.25;;;;;;;16.65;89.92;95008.05;1675523;84;21105;-53
2022/08/08 02:09:09;;;;;;;5.67;3.62;;;;;;;16.67;89.87;95000.00;1663639;82;21065;-52
2022/08/08 02:11:42;;;;;;;5.60;3.52;;;;;;;16.68;90.03;95008.48;1653407;84;21003;-53
2022/08/08 02:14:40;;;;;;;3.62;3.20;;;;;;;16.73;89.95;95005.05;1660513;85;21905;-53
2022/08/08 02:17:34;;;;;;;5.45;3.20;;;;;;;16.75;89.48;95015.05;1668546;84;20959;-52
2022/08/08 02:20:25;;;;;;;;;;;;;;;16.75;89.45;95015.80;1677760;85;21081;-52
2022/08/08 02:23:23;;;;;;;4.35;3.22;;;;;;;16.76;89.65;95009.64;1682428;85;20136;-53
2022/08/08 02:26:07;;;;;;;4.10;3.20;;;;;;;16.74;89.46;95007.33;1673906;84;21526;-53
2022/08/08 02:29:23;;;;;;;3.77;3.00;;;;;;;16.75;89.52;95010.25;1653366;85;21118;-52
2022/08/08 02:32:18;;;;;;;4.47;3.22;;;;;;;16.75;89.33;95008.86;1657971;85;21015;-54
2022/08/08 02:35:01;;;;;;;6.37;3.58;;;;;;;16.70;89.51;95006.02;1679255;85;21467;-53
2022/08/08 02:37:49;;;;;;;7.03;3.20;;;;;;;16.69;89.54;95008.65;1674942;85;21010;-53
2022/08/08 02:40:38;;;;;;;4.97;4.00;;;;;;;16.66;89.79;95006.81;1672888;84;21018;-54
2022/08/08 02:43:41;;;;;;;3.87;3.12;;;;;;;16.65;89.78;95007.45;1663583;85;21255;-53
2022/08/08 02:46:32;;;;;;;4.75;3.37;;;;;;;16.70;89.96;95015.73;1645285;84;21104;-53
2022/08/08 02:49:34;;;;;;;4.83;3.47;;;;;;;16.76;89.83;95015.20;1650574;84;21026;-53
2022/08/08 02:52:13;;;;;;;5.53;3.60;;;;;;;16.78;89.60;95015.48;1661567;85;20999;-53
2022/08/08 02:54:54;;;;;;;5.28;3.67;;;;;;;16.77;89.56;95021.65;1672378;85;21046;-52
2022/08/08 02:58:21;;;;;;;5.00;3.17;;;;;;;16.76;89.58;95026.31;1676865;85;22175;-53
2022/08/08 03:01:00;;;;;;;4.08;3.60;;;;;;;16.75;89.48;95027.56;1677185;85;21499;-54
2022/08/08 03:04:06;;;;;;;5.30;3.52;;;;;;;16.69;89.74;95023.94;1671617;84;21048;-54
2022/08/08 03:07:14;;;;;;;5.12;3.50;;;;;;;16.66;90.06;95024.87;1653474;85;20960;-53
2022/08/08 03:10:28;;;;;;;4.55;3.37;;;;;;;16.68;90.10;95021.77;1654737;85;21628;-53
2022/08/08 03:13:24;;;;;;;5.40;3.47;;;;;;;16.67;90.11;95024.40;1610155;88;21115;-53
2022/08/08 03:16:07;;;;;;;6.50;3.60;;;;;;;16.69;90.10;95022.55;1654330;86;21057;-53
2022/08/08 03:18:46;;;;;;;4.45;3.80;;;;;;;16.67;90.26;95021.63;1662741;85;21028;-52
2022/08/08 03:21:15;;;;;;;5.53;4.37;;;;;;;16.72;90.39;95022.97;1686546;84;20998;-53
2022/08/08 03:23:44;;;;;;;5.72;3.75;;;;;;;16.75;90.39;95025.53;1675786;84;21010;-53
2022/08/08 03:26:16;;;;;;;4.35;3.80;;;;;;;16.79;90.11;95029.52;1667246;85;21854;-53
2022/08/08 03:28:46;;;;;;;4.85;3.33;;;;;;;16.82;89.92;95025.77;1661566;84;21517;-54
2022/08/08 03:34:04;;;;;;;4.67;3.80;;;;;;;16.84;89.67;95023.28;1660816;85;21077;-53
2022/08/08 03:36:40;;;;;;;5.90;4.33;;;;;;;16.81;89.71;95027.02;1668898;85;21063;-54
2022/08/08 03:39:10;;;;;;;5.50;4.33;;;;;;;16.78;89.85;95027.98;1666995;85;21259;-53
2022/08/08 03:41:39;;;;;;;4.92;3.83;;;;;;;16.77;89.95;95023.03;1666325;84;21560;-53
2022/08/08 03:44:08;;;;;;;7.30;4.08;;;;;;;16.83;89.92;95025.91;1660717;85;21596;-54
2022/08/08 03:46:47;;;;;;;5.47;4.05;;;;;;;16.82;89.74;95029.94;1638016;86;21022;-53
2022/08/08 03:49:22;;;;;;;6.75;4.50;;;;;;;16.81;90.01;95025.63;1652170;86;21584;-53
2022/08/08 03:51:55;;;;;;;5.08;3.87;;;;;;;16.86;90.15;95031.90;1659705;85;21156;-53
2022/08/08 03:54:28;;;;;;;6.12;4.15;;;;;;;16.89;90.04;95033.73;1657330;86;21003;-53
2022/08/08 03:56:56;;;;;;;5.70;3.98;;;;;;;16.93;89.99;95039.86;1667312;85;20975;-54
2022/08/08 03:59:31;;;;;;;4.22;3.83;;;;;;;16.96;89.71;95036.12;1662601;84;21034;-53
2022/08/08 04:02:03;;;;;;;4.87;3.98;;;;;;;17.00;89.64;95040.24;1655236;85;20951;-53
2022/08/08 04:04:39;;;;;;;4.72;4.03;;;;;;;17.01;89.51;95039.60;1649872;84;21810;-53
2022/08/08 04:07:08;;;;;;;5.30;4.60;;;;;;;17.02;89.66;95035.58;1662932;84;20964;-54
2022/08/08 04:09:38;;;;;;;5.03;4.05;;;;;;;17.08;89.55;95039.23;1649146;85;21018;-54
2022/08/08 04:12:07;;;;;;;7.05;3.98;;;;;;;17.14;89.34;95042.24;1666106;85;21021;-53
2022/08/08 04:14:37;;;;;;;5.65;4.33;;;;;;;17.20;89.16;95045.08;1671702;85;20966;-53
2022/08/08 04:17:06;;;;;;;8.48;4.87;;;;;;;17.27;89.00;95045.45;1671256;84;21080;-53
2022/08/08 04:19:35;;;;;;;4.70;3.60;;;;;;;17.33;88.41;95047.71;1661624;85;20974;-53
2022/08/08 04:22:03;;;;;;;13.60;4.03;;;;;;;17.35;87.87;95044.47;1676570;84;21018;-53
2022/08/08 04:24:33;;;;;;;5.83;3.75;;;;;;;17.34;87.59;95044.32;1666029;84;21010;-54
2022/08/08 04:27:03;;;;;;;6.90;4.10;;;;;;;17.34;87.62;95048.50;1662770;85;21054;-52
2022/08/08 04:29:31;;;;;;;6.05;4.33;;;;;;;17.32;87.51;95045.41;1644565;85;21239;-53
2022/08/08 04:31:59;;;;;;;6.10;4.47;;;;;;;17.33;87.57;95049.72;1641486;84;21010;-54
2022/08/08 04:34:28;;;;;;;4.37;3.85;;;;;;;17.33;87.49;95044.16;1661400;84;21124;-53
2022/08/08 04:36:56;;;;;;;5.97;3.98;;;;;;;17.37;87.32;95043.35;1602788;86;21612;-54
2022/08/08 04:39:24;;;;;;;13.13;4.15;;;;;;;17.39;87.06;95049.19;1575014;88;21095;-55
2022/08/08 04:41:52;;;;;;;4.55;3.83;;;;;;;17.43;86.90;95049.78;1666599;85;21260;-55
2022/08/08 04:44:20;;;;;;;5.60;4.70;;;;;;;17.42;87.08;95052.42;1644727;85;21034;-57
2022/08/08 04:46:48;;;;;;;7.20;4.42;;;;;;;17.44;87.05;95049.28;1662180;84;21541;-57
2022/08/08 04:49:15;;;;;;;5.97;4.20;;;;;;;17.47;87.08;95051.73;1662458;85;20991;-53
2022/08/08 04:51:44;;;;;;;5.85;3.98;;;;;;;17.47;86.86;95048.95;1662993;85;21101;-51
2022/08/08 04:54:12;;;;;;;4.65;3.72;;;;;;;17.46;86.83;95046.78;1656485;85;21242;-52
2022/08/08 04:56:40;;;;;;;6.78;4.28;;;;;;;17.51;87.02;95051.67;1633348;86;21561;-54
2022/08/08 04:59:09;;;;;;;3.95;3.55;;;;;;;17.56;86.82;95046.80;1637885;86;21028;-52
2022/08/08 05:01:36;;;;;;;4.30;3.65;;;;;;;17.57;86.67;95047.56;1654693;85;21102;-52
2022/08/08 05:04:05;;;;;;;5.05;3.60;;;;;;;17.58;86.54;95044.30;1667253;84;21050;-52
2022/08/08 05:06:35;;;;;;;5.15;4.12;;;;;;;17.59;86.28;95051.40;1668751;85;21157;-53
2022/08/08 05:09:03;;;;;;;5.22;4.30;;;;;;;17.56;86.20;95055.16;1639525;85;21127;-51
2022/08/08 05:11:32;;;;;;;6.35;4.47;;;;;;;17.58;86.39;95051.27;1662403;84;21002;-53
2022/08/08 05:14:02;;;;;;;6.60;4.50;;;;;;;17.65;86.40;95058.44;1651840;85;21180;-52
2022/08/08 05:16:32;;;;;;;5.87;4.28;;;;;;;17.74;86.04;95054.12;1662428;84;21066;-53
2022/08/08 05:19:00;;;;;;;6.83;4.40;;;;;;;17.81;85.71;95056.51;1666788;84;21259;-50
2022/08/08 05:21:29;;;;;;;4.65;4.15;;;;;;;17.87;85.43;95055.95;1681181;84;20999;-51
2022/08/08 05:23:57;;;;;;;5.87;4.40;;;;;;;17.94;85.14;95062.48;1673876;84;20966;-51
2022/08/08 05:26:25;;;;;;;7.28;4.62;;;;;;;17.99;84.91;95056.23;1636245;85;20972;-51
2022/08/08 05:28:54;;;;;;;5.30;4.37;;;;;;;18.07;84.72;95057.34;1658963;85;21554;-51
2022/08/08 05:31:22;;;;;;;5.37;4.35;;;;;;;18.13;84.44;95048.41;1671037;84;21237;-51
2022/08/08 05:33:50;;;;;;;7.17;4.00;;;;;;;18.18;84.28;95051.91;1659849;84;21078;-51
2022/08/08 05:36:20;;;;;;;9.43;5.35;;;;;;;18.21;84.22;95045.50;1676630;85;20970;-52
2022/08/08 05:38:48;;;;;;;5.47;4.20;;;;;;;18.28;84.06;95050.66;1656877;84;21090;-50
2022/08/08 05:41:17;;;;;;;4.85;3.83;;;;;;;18.39;83.65;95050.02;1663650;85;20972;-51
2022/08/08 05:43:46;;;;;;;6.65;3.83;;;;;;;18.44;82.87;95047.30;1657538;84;21507;-52
2022/08/08 05:46:14;;;;;;;6.10;3.90;;;;;;;18.49;82.35;95042.41;1658003;84;21035;-51
2022/08/08 05:48:43;;;;;;;4.08;3.20;;;;;;;18.58;81.92;95048.45;1628680;85;21181;-56
2022/08/08 05:51:14;;;;;;;6.85;3.72;;;;;;;18.66;81.76;95048.91;1664287;85;21019;-52
2022/08/08 05:53:44;;;;;;;4.47;3.85;;;;;;;18.71;81.53;95046.83;1656372;84;21097;-52
2022/08/08 05:56:12;;;;;;;4.58;4.00;;;;;;;18.70;81.00;95046.70;1671122;84;21240;-55
2022/08/08 05:58:42;;;;;;;8.20;3.80;;;;;;;18.69;81.00;95052.14;1643357;86;21035;-55
2022/08/08 06:01:11;;;;;;;5.45;3.70;;;;;;;18.73;81.01;95051.28;1655823;85;21124;-55
2022/08/08 06:03:42;;;;;;;5.35;3.17;;;;;;;18.84;80.72;95052.77;1640823;85;21122;-57
2022/08/08 06:06:09;;;;;;;4.60;3.27;;;;;;;18.96;80.17;95055.02;1656703;85;21862;-54
2022/08/08 06:08:44;;;;;;;3.37;2.92;;;;;;;19.07;79.95;95053.11;1656381;83;21109;-54
2022/08/08 06:11:13;;;;;;;6.15;3.83;;;;;;;19.19;79.34;95051.95;1634900;85;21054;-53
2022/08/08 06:13:40;;;;;;;3.65;2.92;;;;;;;19.29;78.54;95051.92;1652206;83;21061;-54
2022/08/08 06:16:10;;;;;;;4.62;3.47;;;;;;;19.37;78.27;95055.78;1643703;85;21174;-54
2022/08/08 06:18:40;;;;;;;4.58;3.40;;;;;;;19.44;77.73;95052.55;1633340;85;21066;-55
2022/08/08 06:21:08;;;;;;;6.85;3.35;;;;;;;19.51;76.88;95059.67;1650843;84;21942;-53
2022/08/08 06:23:36;;;;;;;13.55;3.17;;;;;;;19.56;76.94;95059.71;1656085;83;21545;-53
2022/08/08 06:26:09;;;;;;;3.33;3.02;;;;;;;19.62;76.65;95056.96;1640843;85;21124;-53
2022/08/08 06:29:00;;;;;;;3.55;3.25;;;;;;;19.66;76.34;95056.88;1651216;84;21029;-52
2022/08/08 06:31:28;;;;;;;3.55;3.00;;;;;;;19.68;75.96;95061.94;1640310;85;21082;-54
2022/08/08 06:34:09;;;;;;;8.78;4.50;;;;;;;19.70;75.52;95052.46;1652799;86;21134;-53
2022/08/08 06:36:40;;;;;;;4.35;3.62;;;;;;;19.73;75.56;95057.05;1646679;85;21090;-52
2022/08/08 06:39:11;;;;;;;3.92;3.52;;;;;;;19.81;75.52;95058.88;1661264;84;21268;-54
2022/08/08 06:41:56;;;;;;;4.85;3.15;;;;;;;19.85;75.24;95055.83;1659665;83;21073;-55
2022/08/08 06:44:25;;;;;;;4.28;3.08;;;;;;;19.91;75.40;95049.01;1663004;84;21084;-54
2022/08/08 06:46:57;;;;;;;3.52;3.00;;;;;;;20.02;74.69;95057.48;1664993;84;21217;-53
2022/08/08 06:49:27;;;;;;;3.33;3.02;;;;;;;20.10;74.73;95059.92;1644741;85;21034;-55
2022/08/08 06:51:57;;;;;;;10.75;5.65;;;;;;;20.10;74.30;95050.14;1632449;85;21323;-54
2022/08/08 06:54:25;;;;;;;3.40;3.10;;;;;;;20.14;74.34;95049.27;1624622;85;21128;-54
2022/08/08 06:56:54;;;;;;;5.20;3.42;;;;;;;20.25;73.72;95049.33;1622453;85;20998;-56
2022/08/08 06:59:22;;;;;;;2.90;2.60;;;;;;;20.34;73.65;95045.67;1641741;85;21824;-55
2022/08/08 07:01:59;;;;;;;3.70;3.40;;;;;;;20.45;73.35;95046.34;1639813;85;21035;-55
2022/08/08 07:04:59;;;;;;;3.15;2.85;;;;;;;20.56;72.73;95046.38;1637375;86;21635;-51
2022/08/08 07:08:04;;;;;;;3.67;2.80;;;;;;;20.64;72.05;95046.02;1617389;86;21281;-55
2022/08/08 07:10:36;;;;;;;2.42;2.22;;;;;;;20.76;71.69;95041.98;1655610;84;21042;-54
2022/08/08 07:13:09;;;;;;;3.20;2.90;;;;;;;20.90;70.53;95043.16;1646286;84;21130;-54
2022/08/08 07:15:48;;;;;;;3.98;2.87;;;;;;;20.93;69.84;95041.40;1640412;84;21050;-54
2022/08/08 07:18:21;;;;;;;3.45;3.15;;;;;;;20.94;69.88;95042.27;1659514;84;20986;-55
2022/08/08 07:20:50;;;;;;;3.40;3.10;;;;;;;20.96;69.42;95045.98;1641828;85;21034;-53
2022/08/08 07:23:31;;;;;;;2.98;2.65;;;;;;;20.99;68.69;95045.73;1657616;85;21561;-54
2022/08/08 07:25:59;;;;;;;3.83;2.98;;;;;;;21.01;69.58;95050.19;1660472;84;21416;-57
2022/08/08 07:28:27;;;;;;;3.40;3.00;;;;;;;21.14;69.29;95048.28;1644039;85;21086;-53
2022/08/08 07:30:57;;;;;;;4.50;3.40;;;;;;;21.30;69.19;95047.52;1647221;85;21090;-56
2022/08/08 07:33:26;;;;;;;4.30;3.30;;;;;;;21.48;68.92;95044.95;1663003;84;21046;-54
2022/08/08 07:35:55;;;;;;;3.75;3.37;;;;;;;21.66;68.11;95040.90;1651029;84;21136;-56
2022/08/08 07:38:23;;;;;;;3.30;3.00;;;;;;;21.79;68.05;95040.48;1653163;84;21142;-56
2022/08/08 07:40:57;;;;;;;3.40;3.10;;;;;;;21.91;67.21;95036.39;1651355;85;21502;-54
2022/08/08 07:43:25;;;;;;;5.92;3.35;;;;;;;22.02;66.78;95044.00;1643637;85;21025;-57
2022/08/08 07:45:53;;;;;;;4.15;3.75;;;;;;;22.08;66.55;95043.45;1637591;85;21038;-53
2022/08/08 07:48:23;;;;;;;9.90;3.70;;;;;;;22.18;65.82;95046.73;1648231;85;21141;-53
2022/08/08 07:50:57;;;;;;;8.10;4.25;;;;;;;22.27;65.76;95045.80;1635535;85;21363;-57
2022/08/08 07:53:35;;;;;;;5.33;3.25;;;;;;;22.38;65.64;95045.02;1638519;85;21100;-56
2022/08/08 07:56:03;;;;;;;5.62;3.77;;;;;;;22.49;65.39;95049.94;1628933;85;21011;-55
2022/08/08 07:58:34;;;;;;;5.85;3.80;;;;;;;22.49;64.60;95051.34;1647005;84;21529;-56
2022/08/08 08:01:11;;;;;;;5.20;3.67;;;;;;;22.49;64.75;95047.79;1661417;83;21083;-56
2022/08/08 08:04:02;;;;;;;4.10;3.70;;;;;;;22.54;65.31;95047.77;1662665;84;21157;-55
2022/08/08 08:06:33;;;;;;;6.25;4.30;;;;;;;22.67;64.82;95042.98;1648730;85;21105;-52
2022/08/08 08:09:10;;;;;;;4.17;3.77;;;;;;;22.84;63.82;95042.98;1650930;84;21038;-56
2022/08/08 08:11:40;;;;;;;7.55;4.25;;;;;;;22.98;63.87;95053.11;1645920;85;21352;-58
2022/08/08 08:14:10;;;;;;;;;;;;;;;23.07;62.83;95047.82;1653844;85;21011;-55
2022/08/08 08:16:48;;;;;;;5.75;4.53;;;;;;;23.19;62.61;95047.24;1587377;86;20189;-55
2022/08/08 08:19:16;;;;;;;4.95;4.45;;;;;;;23.25;62.16;95043.00;1579078;89;21081;-53
2022/08/08 08:21:46;;;;;;;5.00;4.42;;;;;;;23.33;61.41;95046.13;1589183;87;21062;-56
2022/08/08 08:24:20;;;;;;;8.00;6.58;;;;;;;23.40;60.76;95042.73;1579650;88;21086;-54
2022/08/08 08:26:48;;;;;;;9.83;4.90;;;;;;;23.49;61.29;95043.04;1601468;88;20991;-53
2022/08/08 08:29:17;;;;;;;7.83;5.10;;;;;;;23.59;60.73;95035.16;1583226;87;21166;-51
2022/08/08 08:31:46;;;;;;;6.35;4.70;;;;;;;23.66;59.90;95040.22;1577028;87;21141;-55
2022/08/08 08:34:15;;;;;;;8.30;4.75;;;;;;;23.64;60.03;95038.58;1582868;88;21192;-53
2022/08/08 08:36:43;;;;;;;5.95;4.50;;;;;;;23.64;60.03;95039.20;1577472;87;21216;-55
2022/08/08 08:39:18;;;;;;;6.60;5.10;;;;;;;23.64;59.84;95044.20;1584631;88;21117;-53
2022/08/08 08:41:45;;;;;;;6.47;4.75;;;;;;;23.68;59.61;95045.30;1550137;89;21506;-53
2022/08/08 08:44:13;;;;;;;8.78;4.87;;;;;;;23.73;60.06;95048.72;1562465;89;21052;-58
2022/08/08 08:46:41;;;;;;;5.22;4.72;;;;;;;23.77;59.77;95048.52;1567768;88;21037;-55
2022/08/08 08:49:09;;;;;;;6.08;4.85;;;;;;;23.80;58.74;95044.69;1586757;88;21647;-51
2022/08/08 08:51:41;;;;;;;7.75;4.90;;;;;;;23.80;59.46;95040.47;1584835;88;21249;-56
2022/08/08 08:54:08;;;;;;;7.17;4.62;;;;;;;23.84;59.48;95042.37;1550755;89;21292;-57
2022/08/08 08:56:37;;;;;;;6.87;4.15;;;;;;;23.88;59.81;95042.83;1561636;89;21011;-56
2022/08/08 08:59:15;;;;;;;6.50;4.50;;;;;;;23.98;59.99;95043.24;1558423;88;21106;-55
2022/08/08 09:01:44;;;;;;;6.97;4.60;;;;;;;24.04;59.64;95040.49;1585316;88;21679;-55
2022/08/08 09:04:22;;;;;;;4.92;4.05;;;;;;;24.15;59.12;95035.50;1582595;87;21144;-56
2022/08/08 09:06:52;;;;;;;6.78;4.30;;;;;;;24.27;58.63;95034.72;1597237;87;21273;-58
2022/08/08 09:09:25;;;;;;;7.55;4.80;;;;;;;24.37;58.33;95037.30;1596453;87;21121;-52
2022/08/08 09:11:54;;;;;;;7.22;4.60;;;;;;;24.41;58.09;95032.13;1593329;87;21294;-55
2022/08/08 09:14:23;;;;;;;7.85;4.60;;;;;;;24.56;58.29;95031.83;1604695;87;21060;-53
2022/08/08 09:16:51;;;;;;;5.40;4.72;;;;;;;24.67;57.98;95024.66;1585476;87;21549;-54
2022/08/08 09:19:20;;;;;;;5.70;5.10;;;;;;;24.73;57.37;95021.11;1576843;89;21884;-52
2022/08/08 09:21:52;;;;;;;5.50;5.00;;;;;;;24.76;57.30;95027.73;1592360;87;21072;-56
2022/08/08 09:24:20;;;;;;;7.03;5.27;;;;;;;24.75;58.37;95024.80;1586461;88;21756;-51
2022/08/08 09:27:07;;;;;;;5.90;4.75;;;;;;;24.83;58.32;95022.26;1564698;89;21553;-56
2022/08/08 09:29:45;;;;;;;5.60;5.05;;;;;;;25.00;57.80;95021.37;1587448;88;21034;-54
2022/08/08 09:32:28;;;;;;;5.55;5.00;;;;;;;25.16;57.60;95018.92;1595704;88;21275;-52
2022/08/08 09:34:56;;;;;;;5.00;4.33;;;;;;;25.32;57.92;95022.16;1573590;88;21062;-53
2022/08/08 09:37:28;;;;;;;5.42;4.60;;;;;;;25.49;57.46;95022.64;1577965;88;21426;-53
2022/08/08 09:40:05;;;;;;;;;;;;;;;25.66;56.79;95025.19;1596553;87;21023;-52
2022/08/08 09:42:36;;;;;;;7.00;5.70;;;;;;;25.79;55.86;95019.56;1584574;89;20275;-50
2022/08/08 09:45:14;;;;;;;10.05;4.92;;;;;;;25.81;55.29;95019.80;1586042;88;21220;-58
2022/08/08 09:47:44;;;;;;;6.78;4.95;;;;;;;25.81;56.33;95022.63;1585984;87;21209;-53
2022/08/08 09:50:15;;;;;;;8.85;5.15;;;;;;;25.91;56.11;95016.05;1588951;88;22790;-52
2022/08/08 09:52:50;;;;;;;5.28;4.78;;;;;;;26.04;56.45;95011.17;1603354;87;21032;-53
2022/08/08 09:55:19;;;;;;;5.80;5.17;;;;;;;26.21;55.06;95022.89;1589330;88;21293;-54
2022/08/08 09:57:50;;;;;;;7.65;5.42;;;;;;;26.26;55.02;95016.37;1567160;89;21350;-52
2022/08/08 10:00:19;;;;;;;5.78;5.03;;;;;;;26.33;54.94;95018.53;1590833;88;21384;-52
2022/08/08 10:02:50;;;;;;;8.20;4.83;;;;;;;26.49;54.61;95016.05;1579886;89;21248;-55
2022/08/08 10:05:19;;;;;;;6.22;5.47;;;;;;;26.69;53.77;95011.80;1575923;89;21149;-52
2022/08/08 10:08:05;;;;;;;5.50;5.00;;;;;;;26.83;53.35;95006.23;1578395;88;21198;-52
2022/08/08 10:10:34;;;;;;;5.10;4.70;;;;;;;27.00;52.83;95013.68;1595704;87;21711;-51
2022/08/08 10:13:23;;;;;;;6.00;5.40;;;;;;;27.22;52.58;95006.13;1575753;88;21581;-55
2022/08/08 10:15:53;;;;;;;9.35;5.00;;;;;;;27.37;53.17;95008.44;1600375;87;21086;-51
2022/08/08 10:18:38;;;;;;;4.87;4.40;;;;;;;27.46;51.79;95003.73;1610000;87;21348;-50
2022/08/08 10:21:09;;;;;;;6.58;5.10;;;;;;;27.38;51.23;95017.02;1588429;88;20990;-51
2022/08/08 10:23:50;;;;;;;5.27;4.77;;;;;;;26.96;51.18;95012.59;1596620;88;21287;-49
2022/08/08 10:26:25;;;;;;;5.50;4.87;;;;;;;26.54;52.47;95008.14;1591421;87;21675;-53
2022/08/08 10:28:56;;;;;;;8.08;5.70;;;;;;;26.23;53.39;95009.64;1613128;87;21129;-54
2022/08/08 10:34:16;;;;;;;8.03;6.95;;;;;;;25.76;54.57;94988.22;1588869;87;21025;-53
2022/08/08 10:36:45;;;;;;;9.35;5.60;;;;;;;25.56;55.23;94995.89;1579559;89;21284;-54
2022/08/08 10:39:21;;;;;;;8.28;6.20;;;;;;;25.43;55.44;95000.08;1582657;88;21150;-52
2022/08/08 10:42:00;;;;;;;9.70;6.85;;;;;;;25.32;55.87;95001.69;1584268;87;21180;-52
2022/08/08 10:44:38;;;;;;;7.80;6.62;;;;;;;25.14;56.82;95005.28;1572090;88;21528;-50
2022/08/08 10:47:14;;;;;;;9.45;6.65;;;;;;;24.96;56.50;95015.92;1599015;87;21064;-57
2022/08/08 10:49:55;;;;;;;10.15;6.33;;;;;;;24.69;56.99;95014.25;1589594;87;21142;-54
2022/08/08 10:52:30;;;;;;;9.83;6.80;;;;;;;24.46;57.82;95008.79;1604150;87;21081;-53
2022/08/08 10:55:02;;;;;;;6.30;5.70;;;;;;;24.25;58.44;95010.59;1594657;87;21007;-52
2022/08/08 10:57:30;;;;;;;8.98;7.08;;;;;;;24.05;59.22;95014.64;1611997;87;21081;-51
2022/08/08 10:59:58;;;;;;;9.05;7.22;;;;;;;23.85;59.66;95025.63;1590075;88;21649;-52
2022/08/08 11:02:39;;;;;;;12.18;6.80;;;;;;;23.65;60.28;95019.03;1594448;88;21152;-54
2022/08/08 11:05:09;;;;;;;8.30;6.50;;;;;;;23.50;60.87;95016.47;1591373;87;21459;-54
2022/08/08 11:07:45;;;;;;;8.43;6.25;;;;;;;23.40;61.38;95021.66;1582133;89;21090;-51
2022/08/08 11:10:18;;;;;;;10.05;7.05;;;;;;;23.37;61.67;95026.93;1600886;87;21181;-48
2022/08/08 11:12:55;;;;;;;10.23;6.92;;;;;;;23.30;61.88;95026.11;1601759;87;21065;-54
2022/08/08 11:15:29;;;;;;;10.75;6.28;;;;;;;23.31;62.11;95030.44;1577082;88;21172;-47
2022/08/08 11:17:58;;;;;;;10.15;7.12;;;;;;;23.35;62.21;95018.93;1588899;87;21026;-48
2022/08/08 11:20:27;;;;;;;10.70;6.67;;;;;;;23.39;61.87;95014.53;1576420;89;21093;-53
2022/08/08 11:23:00;;;;;;;11.35;7.25;;;;;;;23.40;62.07;95011.09;1566878;89;21126;-55
2022/08/08 11:25:30;;;;;;;10.48;6.55;;;;;;;23.46;61.87;95004.14;1582294;87;21000;-56
2022/08/08 11:27:59;;;;;;;11.30;7.60;;;;;;;23.53;61.97;95010.58;1588056;88;21785;-52
2022/08/08 11:30:30;;;;;;;9.20;7.25;;;;;;;23.59;61.79;95003.50;1592623;87;21125;-53
2022/08/08 11:33:03;;;;;;;9.85;7.28;;;;;;;23.62;62.05;95004.62;1582216;88;21085;-51
2022/08/08 11:35:33;;;;;;;12.37;6.85;;;;;;;23.69;61.99;94995.61;1586539;87;21638;-52
2022/08/08 11:38:02;;;;;;;13.72;6.53;;;;;;;23.79;61.83;94991.80;1585586;89;21048;-55
2022/08/08 11:40:30;;;;;;;44.77;40.30;;;;;;;23.85;61.36;94996.74;1587375;87;21144;-54
2022/08/08 11:42:58;;;;;;;19.15;12.50;;;;;;;23.86;61.58;94992.01;1591354;87;21098;-51
2022/08/08 11:45:28;;;;;;;11.93;7.60;;;;;;;23.96;61.55;94995.23;1557546;89;21080;-51
2022/08/08 11:47:56;;;;;;;10.80;6.92;;;;;;;24.04;60.85;95004.69;1558001;88;21445;-51
2022/08/08 11:50:31;;;;;;;9.38;7.05;;;;;;;24.16;60.34;95003.91;1580093;88;21114;-52
2022/08/08 11:53:01;;;;;;;12.43;6.62;;;;;;;24.25;60.35;95010.59;1581012;88;21301;-48
2022/08/08 11:55:29;;;;;;;6.83;5.80;;;;;;;24.38;59.86;95005.06;1591847;87;21175;-56
2022/08/08 11:58:08;;;;;;;6.90;5.83;;;;;;;24.47;60.03;95007.49;1550540;88;21578;-53
2022/08/08 12:00:52;;;;;;;8.10;6.20;;;;;;;24.72;59.85;95012.55;1563963;89;21162;-52
2022/08/08 12:03:23;;;;;;;7.92;6.50;;;;;;;25.18;58.89;95007.13;1574910;88;21241;-57
2022/08/08 12:05:52;;;;;;;8.75;6.40;;;;;;;25.79;58.68;95006.88;1589177;88;21237;-54
2022/08/08 12:08:38;;;;;;;9.48;5.87;;;;;;;26.30;55.96;95006.19;1553156;89;21966;-50
2022/08/08 12:11:19;;;;;;;6.92;5.50;;;;;;;26.82;54.60;95009.70;1587188;87;21045;-55
2022/08/08 12:13:48;;;;;;;6.95;5.53;;;;;;;27.26;53.34;95003.70;1584846;88;21896;-51
2022/08/08 12:16:17;;;;;;;6.47;5.47;;;;;;;27.72;53.22;95010.66;1577270;88;21241;-54
2022/08/08 12:18:54;;;;;;;8.10;5.58;;;;;;;27.94;52.21;95009.44;1573185;88;21329;-52
2022/08/08 12:21:25;;;;;;;8.83;4.72;;;;;;;27.88;51.28;95013.72;1587881;88;21028;-53
2022/08/08 12:24:16;;;;;;;6.10;4.72;;;;;;;27.60;51.06;95010.06;1587716;87;21108;-53